Beekbergen, Netherlands
Current Conditions -  °F | °C
As of 6:25 AM on Thursday 23 Oct 2014 (Local Time) from EHDL Reporting Station
Haze Haze  
Wind Chill: 46°   Ceiling: 4700
Heat Index: 48°   Visibility: 2.3mi
Dew Point: 48°   Wind: 6mph
Humidity: 100%   Direction: 210°SSW
Pressure: 30.15"   Gusts: NA
Location:  52.16°N, 5.96°E
Report Text: EHDL 230425Z AUTO 21005KT 3700 BR BKN047 BKN099 OVC100 09/09 Q1021 GRN
Loading
Personal Weather Stations






























Interactive Weather Map
Tropical Storm Tracking
New forecast layout! Learn more

10-Day Weather Forecast

Advertisements
Track Severe Weather on mobile